createdAt,value
2018-01-27T00:00:47.892Z,978.94
2018-01-27T00:01:47.880Z,978.88
2018-01-27T00:02:47.858Z,978.89
2018-01-27T00:03:47.846Z,978.96
2018-01-27T00:04:47.832Z,978.95
2018-01-27T00:05:47.814Z,978.96
2018-01-27T00:06:47.797Z,978.99
2018-01-27T00:07:47.780Z,978.98
2018-01-27T00:08:47.768Z,978.94
2018-01-27T00:09:47.750Z,978.95
2018-01-27T00:10:47.734Z,978.97
2018-01-27T00:11:47.720Z,979.00
2018-01-27T00:12:47.704Z,979.04
2018-01-27T00:13:47.687Z,979.02
2018-01-27T00:14:47.673Z,979.02
2018-01-27T00:15:47.666Z,979.02
2018-01-27T00:16:47.657Z,978.99
2018-01-27T00:17:47.626Z,978.98
2018-01-27T00:18:47.610Z,979.04
2018-01-27T00:19:47.597Z,979.03
2018-01-27T00:20:47.582Z,979.01
2018-01-27T00:21:47.570Z,979.06
2018-01-27T00:22:47.553Z,979.03
2018-01-27T00:23:47.533Z,979.06
2018-01-27T00:24:47.518Z,979.05
2018-01-27T00:25:47.499Z,979.04
2018-01-27T00:26:47.483Z,979.06
2018-01-27T00:27:47.469Z,979.10
2018-01-27T00:28:47.459Z,979.08
2018-01-27T00:29:47.437Z,979.07
2018-01-27T00:30:47.421Z,979.08
2018-01-27T00:31:47.408Z,979.10
2018-01-27T00:32:47.390Z,979.09
2018-01-27T00:33:47.374Z,979.10
2018-01-27T00:34:47.365Z,979.09
2018-01-27T00:35:47.343Z,979.13
2018-01-27T00:36:47.328Z,979.16
2018-01-27T00:37:47.314Z,979.15
2018-01-27T00:38:47.301Z,979.12
2018-01-27T00:39:47.280Z,979.14
2018-01-27T00:40:47.263Z,979.19
2018-01-27T00:41:47.253Z,979.24
2018-01-27T00:42:47.231Z,979.22
2018-01-27T00:43:47.217Z,979.21
2018-01-27T00:44:47.202Z,979.22
2018-01-27T00:45:47.187Z,979.21
2018-01-27T00:46:47.169Z,979.19
2018-01-27T00:47:47.159Z,979.18
2018-01-27T00:48:47.143Z,979.12
2018-01-27T00:49:47.123Z,979.22
2018-01-27T00:50:47.113Z,979.19
2018-01-27T00:51:47.091Z,979.16
2018-01-27T00:52:47.075Z,979.21
2018-01-27T00:53:47.058Z,979.18
2018-01-27T00:54:47.041Z,979.23
2018-01-27T00:55:47.028Z,979.25
2018-01-27T00:56:47.018Z,979.24
2018-01-27T00:57:46.996Z,979.26
2018-01-27T00:58:46.980Z,979.27
2018-01-27T00:59:46.963Z,979.29
2018-01-27T01:00:46.951Z,979.28
2018-01-27T01:01:46.932Z,979.30
2018-01-27T01:02:46.923Z,979.35
2018-01-27T01:03:46.903Z,979.36
2018-01-27T01:04:46.884Z,979.34
2018-01-27T01:05:46.870Z,979.37
2018-01-27T01:06:46.854Z,979.36
2018-01-27T01:07:46.836Z,979.36
2018-01-27T01:08:46.823Z,979.42
2018-01-27T01:09:46.804Z,979.46
2018-01-27T01:10:46.790Z,979.44
2018-01-27T01:11:46.776Z,979.45
2018-01-27T01:12:46.757Z,979.45
2018-01-27T01:13:46.742Z,979.41
2018-01-27T01:14:46.731Z,979.47
2018-01-27T01:15:46.712Z,979.48
2018-01-27T01:16:46.695Z,979.52
2018-01-27T01:17:46.684Z,979.48
2018-01-27T01:18:46.668Z,979.51
2018-01-27T01:19:46.648Z,979.54
2018-01-27T01:20:46.639Z,979.53
2018-01-27T01:21:46.614Z,979.54
2018-01-27T01:22:46.606Z,979.55
2018-01-27T01:23:46.584Z,979.56
2018-01-27T01:24:46.568Z,979.56
2018-01-27T01:25:46.557Z,979.54
2018-01-27T01:26:46.536Z,979.50
2018-01-27T01:27:46.526Z,979.52
2018-01-27T01:28:46.512Z,979.56
2018-01-27T01:29:46.492Z,979.57
2018-01-27T01:30:46.476Z,979.52
2018-01-27T01:31:46.466Z,979.56
2018-01-27T01:32:46.446Z,979.56
2018-01-27T01:33:46.426Z,979.58
2018-01-27T01:34:46.419Z,979.56
2018-01-27T01:35:46.402Z,979.55
2018-01-27T01:36:46.385Z,979.58
2018-01-27T01:37:46.373Z,979.59
2018-01-27T01:38:46.348Z,979.61
2018-01-27T01:39:46.332Z,979.60
2018-01-27T01:40:46.317Z,979.62
2018-01-27T01:41:46.308Z,979.66
2018-01-27T01:42:46.284Z,979.67
2018-01-27T01:43:46.270Z,979.67
2018-01-27T01:44:46.254Z,979.69
2018-01-27T01:45:46.237Z,979.70
2018-01-27T01:46:46.222Z,979.74
2018-01-27T01:47:46.215Z,979.77
2018-01-27T01:48:46.194Z,979.76
2018-01-27T01:49:46.178Z,979.77
2018-01-27T01:50:46.161Z,979.77
2018-01-27T01:51:46.146Z,979.76
2018-01-27T01:52:46.129Z,979.73
2018-01-27T01:53:46.115Z,979.74
2018-01-27T01:54:46.099Z,979.81
2018-01-27T01:55:46.084Z,979.79
2018-01-27T01:56:46.072Z,979.80
2018-01-27T01:57:46.058Z,979.80
2018-01-27T01:58:46.040Z,979.75
2018-01-27T01:59:46.022Z,979.77
2018-01-27T02:00:46.008Z,979.78
2018-01-27T02:01:45.992Z,979.83
2018-01-27T02:02:45.977Z,979.79
2018-01-27T02:03:45.965Z,979.79
2018-01-27T02:04:45.946Z,979.77
2018-01-27T02:05:45.942Z,979.83
2018-01-27T02:06:45.915Z,979.83
2018-01-27T02:07:45.902Z,979.82
2018-01-27T02:08:45.885Z,979.85
2018-01-27T02:09:45.872Z,979.86
2018-01-27T02:10:45.860Z,979.88
2018-01-27T02:11:45.839Z,979.89
2018-01-27T02:12:45.829Z,979.86
2018-01-27T02:13:45.811Z,979.83
2018-01-27T02:14:45.795Z,979.85
2018-01-27T02:15:45.778Z,979.84
2018-01-27T02:16:45.762Z,979.85
2018-01-27T02:17:45.749Z,979.80
2018-01-27T02:18:45.736Z,979.80
2018-01-27T02:19:45.721Z,979.83
2018-01-27T02:20:45.701Z,979.82
2018-01-27T02:21:45.686Z,979.86
2018-01-27T02:22:45.668Z,979.84
2018-01-27T02:23:45.653Z,979.84
2018-01-27T02:24:45.639Z,979.85
2018-01-27T02:25:45.632Z,979.87
2018-01-27T02:26:45.607Z,979.82
2018-01-27T02:27:45.595Z,979.85
2018-01-27T02:28:45.579Z,979.85
2018-01-27T02:29:45.562Z,979.88
2018-01-27T02:30:45.546Z,979.86
2018-01-27T02:31:45.538Z,979.92
2018-01-27T02:32:45.516Z,979.87
2018-01-27T02:33:45.499Z,979.89
2018-01-27T02:34:45.487Z,979.85
2018-01-27T02:35:45.468Z,979.89
2018-01-27T02:36:45.455Z,979.87
2018-01-27T02:37:45.441Z,979.91
2018-01-27T02:38:45.423Z,979.85
2018-01-27T02:39:45.412Z,979.91
2018-01-27T02:40:45.394Z,979.90
2018-01-27T02:41:45.386Z,979.92
2018-01-27T02:42:45.361Z,979.90
2018-01-27T02:43:45.348Z,979.90
2018-01-27T02:44:45.334Z,979.90
2018-01-27T02:45:45.325Z,979.91
2018-01-27T02:46:45.304Z,979.94
2018-01-27T02:47:45.287Z,979.96
2018-01-27T02:48:45.273Z,979.99
2018-01-27T02:49:45.259Z,979.97
2018-01-27T02:50:45.245Z,979.98
2018-01-27T02:51:45.236Z,980.01
2018-01-27T02:52:45.214Z,980.02
2018-01-27T02:53:45.204Z,979.97
2018-01-27T02:54:45.184Z,980.07
2018-01-27T02:55:45.167Z,980.06
2018-01-27T02:56:45.155Z,980.04
2018-01-27T02:57:45.145Z,980.07
2018-01-27T02:58:45.127Z,980.07
2018-01-27T02:59:45.115Z,980.07
2018-01-27T03:00:45.094Z,980.07
2018-01-27T03:01:45.080Z,980.10
2018-01-27T03:02:45.070Z,980.11
2018-01-27T03:03:45.052Z,980.04
2018-01-27T03:04:45.032Z,980.07
2018-01-27T03:05:45.017Z,980.10
2018-01-27T03:06:45.002Z,980.09
2018-01-27T03:07:44.986Z,980.14
2018-01-27T03:08:44.976Z,980.14
2018-01-27T03:09:44.954Z,980.11
2018-01-27T03:10:44.939Z,980.16
2018-01-27T03:11:44.934Z,980.18
2018-01-27T03:12:44.911Z,980.20
2018-01-27T03:13:44.892Z,980.18
2018-01-27T03:14:44.877Z,980.23
2018-01-27T03:15:44.874Z,980.22
2018-01-27T03:16:44.847Z,980.25
2018-01-27T03:17:44.837Z,980.25
2018-01-27T03:18:44.824Z,980.27
2018-01-27T03:19:44.801Z,980.31
2018-01-27T03:20:44.787Z,980.31
2018-01-27T03:21:44.771Z,980.32
2018-01-27T03:22:44.755Z,980.28
2018-01-27T03:23:44.741Z,980.29
2018-01-27T03:24:44.727Z,980.31
2018-01-27T03:25:44.712Z,980.29
2018-01-27T03:26:44.701Z,980.29
2018-01-27T03:27:44.681Z,980.26
2018-01-27T03:28:44.664Z,980.35
2018-01-27T03:29:44.650Z,980.31
2018-01-27T03:30:44.639Z,980.34
2018-01-27T03:31:44.630Z,980.38
2018-01-27T03:32:44.612Z,980.41
2018-01-27T03:33:44.596Z,980.40
2018-01-27T03:34:44.581Z,980.39
2018-01-27T03:35:44.563Z,980.38
2018-01-27T03:36:44.548Z,980.38
2018-01-27T03:37:44.538Z,980.37
2018-01-27T03:38:44.518Z,980.38
2018-01-27T03:39:44.502Z,980.39
2018-01-27T03:40:44.498Z,980.39
2018-01-27T03:41:44.471Z,980.42
2018-01-27T03:42:44.459Z,980.47
2018-01-27T03:43:44.443Z,980.48
2018-01-27T03:44:44.432Z,980.43
2018-01-27T03:45:44.414Z,980.41
2018-01-27T03:46:44.404Z,980.42
2018-01-27T03:47:44.385Z,980.40
2018-01-27T03:48:44.370Z,980.39
2018-01-27T03:49:44.355Z,980.45
2018-01-27T03:50:44.340Z,980.49
2018-01-27T03:51:44.331Z,980.46
2018-01-27T03:52:44.311Z,980.46
2018-01-27T03:53:44.297Z,980.46
2018-01-27T03:54:44.282Z,980.46
2018-01-27T03:55:44.267Z,980.47
2018-01-27T03:56:44.258Z,980.51
2018-01-27T03:57:44.237Z,980.52
2018-01-27T03:58:44.229Z,980.56
2018-01-27T03:59:44.215Z,980.54
2018-01-27T04:00:44.204Z,980.55
2018-01-27T04:01:44.184Z,980.53
2018-01-27T04:02:44.166Z,980.52
2018-01-27T04:03:44.150Z,980.55
2018-01-27T04:04:44.137Z,980.56
2018-01-27T04:05:44.125Z,980.49
2018-01-27T04:06:44.105Z,980.50
2018-01-27T04:07:44.090Z,980.50
2018-01-27T04:08:44.076Z,980.47
2018-01-27T04:09:44.062Z,980.51
2018-01-27T04:10:44.047Z,980.49
2018-01-27T04:11:44.033Z,980.48
2018-01-27T04:12:44.019Z,980.48
2018-01-27T04:13:44.002Z,980.53
2018-01-27T04:14:43.992Z,980.52
2018-01-27T04:15:43.970Z,980.52
2018-01-27T04:16:43.963Z,980.55
2018-01-27T04:17:43.940Z,980.52
2018-01-27T04:18:43.929Z,980.53
2018-01-27T04:19:43.911Z,980.56
2018-01-27T04:20:43.905Z,980.61
2018-01-27T04:21:43.883Z,980.65
2018-01-27T04:22:43.866Z,980.65
2018-01-27T04:23:43.851Z,980.72
2018-01-27T04:24:43.837Z,980.73
2018-01-27T04:25:43.822Z,980.72
2018-01-27T04:26:43.811Z,980.72
2018-01-27T04:27:43.792Z,980.71
2018-01-27T04:28:43.779Z,980.72
2018-01-27T04:29:43.768Z,980.70
2018-01-27T04:30:43.776Z,980.68
2018-01-27T04:31:43.734Z,980.73
2018-01-27T04:32:43.719Z,980.76
2018-01-27T04:33:43.705Z,980.77
2018-01-27T04:34:43.696Z,980.78
2018-01-27T04:35:43.682Z,980.81
2018-01-27T04:36:43.661Z,980.76
2018-01-27T04:37:43.644Z,980.78
2018-01-27T04:38:43.631Z,980.78
2018-01-27T04:39:43.617Z,980.76
2018-01-27T04:40:43.603Z,980.74
2018-01-27T04:41:43.585Z,980.75
2018-01-27T04:42:43.572Z,980.71
2018-01-27T04:43:43.556Z,980.74
2018-01-27T04:44:43.545Z,980.79
2018-01-27T04:45:43.533Z,980.79
2018-01-27T04:46:43.513Z,980.79
2018-01-27T04:47:43.499Z,980.81
2018-01-27T04:48:43.484Z,980.86
2018-01-27T04:49:43.469Z,980.86
2018-01-27T04:50:43.456Z,980.84
2018-01-27T04:51:43.442Z,980.89
2018-01-27T04:52:43.432Z,980.92
2018-01-27T04:53:43.413Z,980.94
2018-01-27T04:54:43.405Z,980.91
2018-01-27T04:55:43.388Z,980.98
2018-01-27T04:56:43.369Z,981.01
2018-01-27T04:57:43.361Z,981.00
2018-01-27T04:58:43.341Z,981.04
2018-01-27T04:59:43.326Z,981.04
2018-01-27T05:00:43.314Z,981.06
2018-01-27T05:01:43.298Z,981.05
2018-01-27T05:02:43.282Z,981.06
2018-01-27T05:03:43.268Z,981.04
2018-01-27T05:04:43.265Z,981.05
2018-01-27T05:05:43.244Z,981.05
2018-01-27T05:06:43.224Z,981.03
2018-01-27T05:07:43.208Z,980.98
2018-01-27T05:08:43.197Z,980.99
2018-01-27T05:09:43.177Z,981.02
2018-01-27T05:10:43.164Z,981.00
2018-01-27T05:11:43.158Z,981.01
2018-01-27T05:12:43.136Z,981.03
2018-01-27T05:13:43.127Z,981.05
2018-01-27T05:14:43.113Z,981.08
2018-01-27T05:15:43.096Z,981.13
2018-01-27T05:16:43.078Z,981.15
2018-01-27T05:17:43.065Z,981.20
2018-01-27T05:18:43.047Z,981.22
2018-01-27T05:19:43.035Z,981.30
2018-01-27T05:20:43.023Z,981.34
2018-01-27T05:21:43.006Z,981.37
2018-01-27T05:22:42.995Z,981.37
2018-01-27T05:23:42.975Z,981.37
2018-01-27T05:24:42.961Z,981.39
2018-01-27T05:25:42.945Z,981.40
2018-01-27T05:26:42.970Z,981.43
2018-01-27T05:28:42.901Z,981.46
2018-01-27T05:29:42.976Z,981.46
2018-01-27T05:30:42.889Z,981.51
2018-01-27T05:31:42.856Z,981.49
2018-01-27T05:32:42.842Z,981.51
2018-01-27T05:33:42.835Z,981.56
2018-01-27T05:34:42.814Z,981.56
2018-01-27T05:35:42.796Z,981.59
2018-01-27T05:36:42.789Z,981.64
2018-01-27T05:37:42.802Z,981.64
2018-01-27T05:38:42.753Z,981.66
2018-01-27T05:39:42.738Z,981.72
2018-01-27T05:40:42.724Z,981.74
2018-01-27T05:41:42.765Z,981.70
2018-01-27T05:42:42.743Z,981.74
2018-01-27T05:43:42.680Z,981.75
2018-01-27T05:44:42.663Z,981.76
2018-01-27T05:45:42.650Z,981.83
2018-01-27T05:46:42.638Z,981.84
2018-01-27T05:47:42.626Z,981.85
2018-01-27T05:48:42.606Z,981.88
2018-01-27T05:49:42.589Z,981.87
2018-01-27T05:50:42.578Z,981.87
2018-01-27T05:51:42.568Z,981.89
2018-01-27T05:52:42.545Z,981.89
2018-01-27T05:53:42.530Z,981.84
2018-01-27T05:54:42.522Z,981.83
2018-01-27T05:55:42.501Z,981.82
2018-01-27T05:56:42.490Z,981.79
2018-01-27T05:57:42.477Z,981.80
2018-01-27T05:58:42.458Z,981.81
2018-01-27T05:59:42.442Z,981.85
2018-01-27T06:00:42.426Z,981.87
2018-01-27T06:01:42.411Z,981.88
2018-01-27T06:02:42.403Z,981.90
2018-01-27T06:03:42.384Z,981.93
2018-01-27T06:04:42.372Z,981.91
2018-01-27T06:05:42.353Z,982.00
2018-01-27T06:06:42.338Z,981.97
2018-01-27T06:07:42.322Z,982.00
2018-01-27T06:08:42.314Z,982.02
2018-01-27T06:09:42.291Z,982.03
2018-01-27T06:10:42.277Z,982.00
2018-01-27T06:11:42.265Z,982.03
2018-01-27T06:12:42.255Z,982.05
2018-01-27T06:13:42.236Z,982.05
2018-01-27T06:14:42.226Z,982.09
2018-01-27T06:15:42.206Z,982.14
2018-01-27T06:16:42.196Z,982.12
2018-01-27T06:17:42.177Z,982.11
2018-01-27T06:18:42.163Z,982.09
2018-01-27T06:19:42.155Z,982.16
2018-01-27T06:20:42.133Z,982.14
2018-01-27T06:21:42.116Z,982.12
2018-01-27T06:22:42.102Z,982.09
2018-01-27T06:23:42.091Z,982.10
2018-01-27T06:24:42.074Z,982.07
2018-01-27T06:25:42.059Z,982.07
2018-01-27T06:26:42.048Z,982.06
2018-01-27T06:27:42.030Z,982.08
2018-01-27T06:28:42.016Z,982.14
2018-01-27T06:29:42.000Z,982.08
2018-01-27T06:30:41.991Z,982.20
2018-01-27T06:31:41.975Z,982.23
2018-01-27T06:32:41.955Z,982.25
2018-01-27T06:33:41.940Z,982.23
2018-01-27T06:34:41.925Z,982.30
2018-01-27T06:35:41.911Z,982.27
2018-01-27T06:36:41.896Z,982.30
2018-01-27T06:37:41.880Z,982.32
2018-01-27T06:38:41.864Z,982.31
2018-01-27T06:39:41.852Z,982.31
2018-01-27T06:40:41.835Z,982.31
2018-01-27T06:41:41.823Z,982.32
2018-01-27T06:42:41.811Z,982.35
2018-01-27T06:43:41.801Z,982.36
2018-01-27T06:44:41.794Z,982.40
2018-01-27T06:45:41.786Z,982.42
2018-01-27T06:46:41.757Z,982.47
2018-01-27T06:47:41.739Z,982.51
2018-01-27T06:48:41.716Z,982.48
2018-01-27T06:49:41.703Z,982.58
2018-01-27T06:50:41.703Z,982.54
2018-01-27T06:51:41.679Z,982.59
2018-01-27T06:52:41.663Z,982.65
2018-01-27T06:53:41.649Z,982.63
2018-01-27T06:54:41.636Z,982.68
2018-01-27T06:55:41.619Z,982.73
2018-01-27T06:56:41.604Z,982.75
2018-01-27T06:57:41.593Z,982.82
2018-01-27T06:58:41.571Z,982.81
2018-01-27T06:59:41.552Z,982.82
2018-01-27T07:00:41.541Z,982.79
2018-01-27T07:01:41.528Z,982.79
2018-01-27T07:02:41.507Z,982.84
2018-01-27T07:03:41.497Z,982.92
2018-01-27T07:04:41.539Z,982.98
2018-01-27T07:05:41.462Z,983.05
2018-01-27T07:06:41.448Z,983.03
2018-01-27T07:07:41.432Z,983.06
2018-01-27T07:08:41.421Z,983.10
2018-01-27T07:09:41.403Z,983.11
2018-01-27T07:10:41.389Z,983.08
2018-01-27T07:11:41.375Z,983.10
2018-01-27T07:12:41.358Z,983.10
2018-01-27T07:13:41.341Z,983.14
2018-01-27T07:14:41.327Z,983.16
2018-01-27T07:15:41.312Z,983.14
2018-01-27T07:16:41.306Z,983.16
2018-01-27T07:17:41.283Z,983.13
2018-01-27T07:18:41.269Z,983.19
2018-01-27T07:19:41.254Z,983.26
2018-01-27T07:20:41.243Z,983.27
2018-01-27T07:21:41.231Z,983.32
2018-01-27T07:22:41.210Z,983.30
2018-01-27T07:23:41.201Z,983.29
2018-01-27T07:24:41.186Z,983.28
2018-01-27T07:25:41.170Z,983.32
2018-01-27T07:26:41.158Z,983.34
2018-01-27T07:27:41.138Z,983.36
2018-01-27T07:28:41.121Z,983.41
2018-01-27T07:29:41.106Z,983.42
2018-01-27T07:30:41.091Z,983.46
2018-01-27T07:31:41.085Z,983.45
2018-01-27T07:32:41.064Z,983.47
2018-01-27T07:33:41.048Z,983.50
2018-01-27T07:34:41.037Z,983.48
2018-01-27T07:35:41.024Z,983.49
2018-01-27T07:36:41.009Z,983.52
2018-01-27T07:37:40.986Z,983.53
2018-01-27T07:38:40.973Z,983.51
2018-01-27T07:39:40.958Z,983.54
2018-01-27T07:40:40.943Z,983.57
2018-01-27T07:41:40.928Z,983.61
2018-01-27T07:42:40.916Z,983.61
2018-01-27T07:43:40.907Z,983.61
2018-01-27T07:44:40.890Z,983.65
2018-01-27T07:45:40.869Z,983.65
2018-01-27T07:46:40.856Z,983.65
2018-01-27T07:47:40.840Z,983.65
2018-01-27T07:48:40.826Z,983.68
2018-01-27T07:49:40.818Z,983.68
2018-01-27T07:50:40.802Z,983.66
2018-01-27T07:51:40.784Z,983.70
2018-01-27T07:52:40.766Z,983.68
2018-01-27T07:53:40.752Z,983.70
2018-01-27T07:54:40.738Z,983.71
2018-01-27T07:55:40.727Z,983.73
2018-01-27T07:56:40.707Z,983.73
2018-01-27T07:57:40.696Z,983.73
2018-01-27T07:58:40.701Z,983.71
2018-01-27T07:59:40.663Z,983.75
2018-01-27T08:00:40.649Z,983.80
2018-01-27T08:01:40.632Z,983.81
2018-01-27T08:02:40.625Z,983.79
2018-01-27T08:03:40.603Z,983.82
2018-01-27T08:04:40.592Z,983.80
2018-01-27T08:05:40.573Z,983.86
2018-01-27T08:06:40.565Z,983.84
2018-01-27T08:07:40.545Z,983.90
2018-01-27T08:08:40.539Z,983.89
2018-01-27T08:09:40.515Z,983.88
2018-01-27T08:10:40.499Z,983.98
2018-01-27T08:11:40.486Z,983.97
2018-01-27T08:12:40.493Z,983.91
2018-01-27T08:13:40.462Z,983.96
2018-01-27T08:14:40.447Z,983.96
2018-01-27T08:15:40.432Z,983.99
2018-01-27T08:16:40.422Z,984.00
2018-01-27T08:17:40.404Z,983.99
2018-01-27T08:18:40.391Z,984.05
2018-01-27T08:19:40.370Z,984.02
2018-01-27T08:20:40.357Z,984.05
2018-01-27T08:21:40.346Z,984.04
2018-01-27T08:22:40.331Z,984.07
2018-01-27T08:23:40.382Z,984.08
2018-01-27T08:24:40.301Z,984.10
2018-01-27T08:25:40.283Z,984.14
2018-01-27T08:26:40.269Z,984.14
2018-01-27T08:27:40.257Z,984.11
2018-01-27T08:28:40.241Z,984.15
2018-01-27T08:29:40.227Z,984.13
2018-01-27T08:30:40.214Z,984.19
2018-01-27T08:31:40.203Z,984.16
2018-01-27T08:32:40.193Z,984.21
2018-01-27T08:33:40.175Z,984.17
2018-01-27T08:34:40.156Z,984.15
2018-01-27T08:35:40.140Z,984.16
2018-01-27T08:36:40.127Z,984.15
2018-01-27T08:37:40.112Z,984.14
2018-01-27T08:38:40.097Z,984.17
2018-01-27T08:39:40.090Z,984.18
2018-01-27T08:40:40.073Z,984.17
2018-01-27T08:41:40.053Z,984.19
2018-01-27T08:42:40.042Z,984.20
2018-01-27T08:43:40.031Z,984.22
2018-01-27T08:44:40.013Z,984.22
2018-01-27T08:45:40.006Z,984.17
2018-01-27T08:46:39.982Z,984.21
2018-01-27T08:47:39.973Z,984.23
2018-01-27T08:48:39.959Z,984.31
2018-01-27T08:49:39.938Z,984.29
2018-01-27T08:50:39.926Z,984.33
2018-01-27T08:51:39.914Z,984.35
2018-01-27T08:52:39.948Z,984.35
2018-01-27T08:53:39.887Z,984.34
2018-01-27T08:54:39.870Z,984.39
2018-01-27T08:55:39.854Z,984.39
2018-01-27T08:56:39.839Z,984.40
2018-01-27T08:57:39.826Z,984.38
2018-01-27T08:58:39.810Z,984.42
2018-01-27T08:59:39.794Z,984.39
2018-01-27T09:00:39.782Z,984.42
2018-01-27T09:01:39.765Z,984.42
2018-01-27T09:02:39.752Z,984.39
2018-01-27T09:03:39.744Z,984.42
2018-01-27T09:04:39.724Z,984.41
2018-01-27T09:05:39.716Z,984.43
2018-01-27T09:06:39.700Z,984.40
2018-01-27T09:07:39.682Z,984.39
2018-01-27T09:08:39.667Z,984.40
2018-01-27T09:09:39.650Z,984.43
2018-01-27T09:10:39.640Z,984.44
2018-01-27T09:11:39.631Z,984.47
2018-01-27T09:12:39.607Z,984.53
2018-01-27T09:13:39.593Z,984.55
2018-01-27T09:14:39.586Z,984.61
2018-01-27T09:15:39.572Z,984.61
2018-01-27T09:16:39.551Z,984.57
2018-01-27T09:17:39.537Z,984.62
2018-01-27T09:18:39.522Z,984.65
2018-01-27T09:19:39.514Z,984.62
2018-01-27T09:20:39.500Z,984.65
2018-01-27T09:21:39.477Z,984.68
2018-01-27T09:22:39.466Z,984.67
2018-01-27T09:23:39.452Z,984.68
2018-01-27T09:24:39.436Z,984.65
2018-01-27T09:25:39.422Z,984.67
2018-01-27T09:26:39.410Z,984.64
2018-01-27T09:27:39.400Z,984.63
2018-01-27T09:28:39.381Z,984.69
2018-01-27T09:29:39.365Z,984.68
2018-01-27T09:30:39.357Z,984.68
2018-01-27T09:31:39.340Z,984.69
2018-01-27T09:32:39.329Z,984.72
2018-01-27T09:33:39.314Z,984.74
2018-01-27T09:34:39.296Z,984.77
2018-01-27T09:35:39.282Z,984.75
2018-01-27T09:36:39.267Z,984.76
2018-01-27T09:37:39.252Z,984.78
2018-01-27T09:38:39.238Z,984.77
2018-01-27T09:39:39.227Z,984.75
2018-01-27T09:40:39.213Z,984.77
2018-01-27T09:41:39.204Z,984.76
2018-01-27T09:42:39.231Z,984.75
2018-01-27T09:43:39.176Z,984.72
2018-01-27T09:44:39.157Z,984.77
2018-01-27T09:45:39.143Z,984.76
2018-01-27T09:46:39.128Z,984.78
2018-01-27T09:47:39.116Z,984.76
2018-01-27T09:48:39.103Z,984.80
2018-01-27T09:49:39.090Z,984.86
2018-01-27T09:50:39.075Z,984.87
2018-01-27T09:51:39.067Z,984.90
2018-01-27T09:52:39.053Z,984.86
2018-01-27T09:53:39.033Z,984.88
2018-01-27T09:54:39.022Z,984.89
2018-01-27T09:55:39.048Z,984.89
2018-01-27T09:56:38.993Z,984.88
2018-01-27T09:57:38.980Z,984.89
2018-01-27T09:58:38.969Z,984.90
2018-01-27T09:59:38.957Z,984.94
2018-01-27T10:00:38.938Z,984.97
2018-01-27T10:01:38.924Z,984.94
2018-01-27T10:02:38.913Z,984.97
2018-01-27T10:03:38.895Z,985.01
2018-01-27T10:04:38.892Z,984.94
2018-01-27T10:05:38.876Z,984.99
2018-01-27T10:06:38.856Z,984.99
2018-01-27T10:07:38.842Z,985.00
2018-01-27T10:08:38.831Z,985.01
2018-01-27T10:09:38.814Z,984.98
2018-01-27T10:10:38.805Z,984.96
2018-01-27T10:11:38.788Z,984.96
2018-01-27T10:12:38.774Z,985.00
2018-01-27T10:13:38.760Z,984.98
2018-01-27T10:14:38.747Z,984.99
2018-01-27T10:15:38.737Z,985.02
2018-01-27T10:16:38.723Z,985.05
2018-01-27T10:17:38.704Z,985.06
2018-01-27T10:18:38.690Z,985.05
2018-01-27T10:19:38.676Z,985.03
2018-01-27T10:20:38.665Z,985.06
2018-01-27T10:21:38.655Z,985.06
2018-01-27T10:22:38.646Z,985.01
2018-01-27T10:23:38.629Z,984.98
2018-01-27T10:24:38.611Z,985.03
2018-01-27T10:25:38.601Z,985.01
2018-01-27T10:26:38.581Z,984.98
2018-01-27T10:27:38.569Z,985.00
2018-01-27T10:28:38.555Z,984.99
2018-01-27T10:29:38.540Z,985.01
2018-01-27T10:30:38.526Z,985.01
2018-01-27T10:31:38.515Z,985.00
2018-01-27T10:32:38.502Z,984.99
2018-01-27T10:33:38.487Z,984.98
2018-01-27T10:34:38.474Z,984.97
2018-01-27T10:35:38.459Z,985.01
2018-01-27T10:36:38.449Z,985.03
2018-01-27T10:37:38.439Z,985.01
2018-01-27T10:38:38.421Z,985.05
2018-01-27T10:39:38.406Z,985.05
2018-01-27T10:40:38.393Z,985.09
2018-01-27T10:41:38.384Z,985.11
2018-01-27T10:42:38.371Z,985.10
2018-01-27T10:43:38.355Z,985.09
2018-01-27T10:44:38.340Z,985.07
2018-01-27T10:45:38.329Z,985.07
2018-01-27T10:46:38.313Z,985.10
2018-01-27T10:47:38.298Z,985.10
2018-01-27T10:48:38.291Z,985.11
2018-01-27T10:49:38.282Z,985.06
2018-01-27T10:50:38.258Z,985.08
2018-01-27T10:51:38.247Z,985.07
2018-01-27T10:52:38.238Z,985.09
2018-01-27T10:53:38.218Z,985.07
2018-01-27T10:54:38.210Z,985.08
2018-01-27T10:55:38.193Z,985.07
2018-01-27T10:56:38.180Z,985.06
2018-01-27T10:57:38.164Z,985.05
2018-01-27T10:58:38.152Z,985.03
2018-01-27T10:59:38.139Z,984.99
2018-01-27T11:00:38.128Z,984.98
2018-01-27T11:01:38.110Z,985.02
2018-01-27T11:02:38.102Z,985.00
2018-01-27T11:03:38.085Z,984.94
2018-01-27T11:04:38.078Z,985.01
2018-01-27T11:05:38.062Z,984.98
2018-01-27T11:06:38.051Z,984.98
2018-01-27T11:07:38.032Z,984.97
2018-01-27T11:08:38.022Z,984.99
2018-01-27T11:09:38.003Z,984.98
2018-01-27T11:10:37.990Z,985.00
2018-01-27T11:11:37.983Z,985.01
2018-01-27T11:12:37.970Z,985.02
2018-01-27T11:13:37.956Z,985.05
2018-01-27T11:14:37.937Z,985.05
2018-01-27T11:15:37.925Z,985.05
2018-01-27T11:16:37.909Z,985.08
2018-01-27T11:17:37.894Z,985.07
2018-01-27T11:18:37.887Z,985.05
2018-01-27T11:19:37.922Z,985.04
2018-01-27T11:20:37.856Z,985.05
2018-01-27T11:21:37.845Z,985.11
2018-01-27T11:22:37.829Z,985.17
2018-01-27T11:23:37.822Z,985.17
2018-01-27T11:24:37.805Z,985.16
2018-01-27T11:25:37.795Z,985.24
2018-01-27T11:26:37.778Z,985.23
2018-01-27T11:27:37.764Z,985.26
2018-01-27T11:28:37.752Z,985.27
2018-01-27T11:29:37.736Z,985.27
2018-01-27T11:30:37.732Z,985.30
2018-01-27T11:31:37.713Z,985.32
2018-01-27T11:32:37.697Z,985.38
2018-01-27T11:33:37.682Z,985.35
2018-01-27T11:34:37.672Z,985.35
2018-01-27T11:35:37.657Z,985.38
2018-01-27T11:36:37.647Z,985.36
2018-01-27T11:37:37.630Z,985.37
2018-01-27T11:38:37.621Z,985.39
2018-01-27T11:39:37.607Z,985.41
2018-01-27T11:40:37.590Z,985.47
2018-01-27T11:41:37.574Z,985.48
2018-01-27T11:42:37.563Z,985.51
2018-01-27T11:43:37.559Z,985.54
2018-01-27T11:44:37.537Z,985.53
2018-01-27T11:45:37.525Z,985.56
2018-01-27T11:46:37.508Z,985.55
2018-01-27T11:47:37.494Z,985.58
2018-01-27T11:48:37.485Z,985.60
2018-01-27T11:49:37.465Z,985.65
2018-01-27T11:50:37.458Z,985.64
2018-01-27T11:51:37.443Z,985.65
2018-01-27T11:52:37.425Z,985.68
2018-01-27T11:53:37.413Z,985.69
2018-01-27T11:54:37.402Z,985.73
2018-01-27T11:55:37.385Z,985.73
2018-01-27T11:56:37.379Z,985.76
2018-01-27T11:57:37.365Z,985.76
2018-01-27T11:58:37.345Z,985.74
2018-01-27T11:59:37.332Z,985.75
2018-01-27T12:00:37.322Z,985.77
2018-01-27T12:01:37.306Z,985.78
2018-01-27T12:02:37.299Z,985.80
2018-01-27T12:03:37.286Z,985.84
2018-01-27T12:04:37.268Z,985.83
2018-01-27T12:05:37.259Z,985.85
2018-01-27T12:06:37.241Z,985.79
2018-01-27T12:07:37.228Z,985.86
2018-01-27T12:08:37.215Z,985.88
2018-01-27T12:09:37.202Z,985.86
2018-01-27T12:10:37.189Z,985.91
2018-01-27T12:11:37.183Z,985.92
2018-01-27T12:12:37.166Z,985.89
2018-01-27T12:13:37.161Z,985.91
2018-01-27T12:14:37.142Z,985.87
2018-01-27T12:15:37.128Z,985.86
2018-01-27T12:16:37.112Z,985.91
2018-01-27T12:17:37.104Z,985.85
2018-01-27T12:18:37.086Z,985.87
2018-01-27T12:19:37.070Z,985.89
2018-01-27T12:20:37.079Z,985.87
2018-01-27T12:21:37.117Z,985.91
2018-01-27T12:22:37.090Z,985.89
2018-01-27T12:23:37.019Z,985.91
2018-01-27T12:24:37.006Z,985.92
2018-01-27T12:25:36.997Z,985.90
2018-01-27T12:26:36.981Z,985.90
2018-01-27T12:27:36.971Z,985.93
2018-01-27T12:28:36.958Z,985.93
2018-01-27T12:29:36.950Z,985.89